Time;durP1;ratioP1;P1;durP2;ratioP2;P2;SDS_P1;SDS_P2;PMS_P1;PMS_P2;Temp;Humidity;BMP_temperature;BMP_pressure;BME280_temperature;BME280_humidity;BME280_pressure;Samples;Min_cycle;Max_cycle;Signal;HPM_P1;HPM_P2
2022/09/03 00:02:22;;;;;;;3.7;3.4;;;;;;;;;;;;;
2022/09/03 00:04:47;;;;;;;3.7;3.4;;;;;;;;;;;;;
2022/09/03 00:07:16;;;;;;;4.5;3.7;;;;;;;;;;;;;
2022/09/03 00:09:41;;;;;;;7.1;3.7;;;;;;;;;;;;;
2022/09/03 00:12:05;;;;;;;3.8;3.5;;;;;;;;;;;;;
2022/09/03 00:14:30;;;;;;;4;3.7;;;;;;;;;;;;;
2022/09/03 00:16:56;;;;;;;4.6;3.6;;;;;;;;;;;;;
2022/09/03 00:19:21;;;;;;;4.9;4.4;;;;;;;;;;;;;
2022/09/03 00:21:48;;;;;;;4;3.6;;;;;;;;;;;;;
2022/09/03 00:24:13;;;;;;;4.4;3.7;;;;;;;;;;;;;
2022/09/03 00:26:39;;;;;;;4.1;3.7;;;;;;;;;;;;;
2022/09/03 00:29:04;;;;;;;4;3.7;;;;;;;;;;;;;
2022/09/03 00:31:30;;;;;;;4.1;3.7;;;;;;;;;;;;;
2022/09/03 00:33:55;;;;;;;4.6;3.9;;;;;;;;;;;;;
2022/09/03 00:36:20;;;;;;;4.7;4;;;;;;;;;;;;;
2022/09/03 00:38:45;;;;;;;4.6;3.8;;;;;;;;;;;;;
2022/09/03 00:41:11;;;;;;;3.9;3.6;;;;;;;;;;;;;
2022/09/03 00:43:36;;;;;;;4;3.7;;;;;;;;;;;;;
2022/09/03 00:46:04;;;;;;;4.3;3.9;;;;;;;;;;;;;
2022/09/03 00:48:27;;;;;;;4.5;3.8;;;;;;;;;;;;;
2022/09/03 00:50:52;;;;;;;4.4;4;;;;;;;;;;;;;
2022/09/03 00:53:17;;;;;;;5.8;4.1;;;;;;;;;;;;;
2022/09/03 00:55:43;;;;;;;4.2;3.8;;;;;;;;;;;;;
2022/09/03 00:58:09;;;;;;;4.9;4.4;;;;;;;;;;;;;
2022/09/03 01:00:33;;;;;;;4.5;4;;;;;;;;;;;;;
2022/09/03 01:03:01;;;;;;;4.3;3.9;;;;;;;;;;;;;
2022/09/03 01:05:26;;;;;;;4.6;4.2;;;;;;;;;;;;;
2022/09/03 01:07:53;;;;;;;4.6;4.1;;;;;;;;;;;;;
2022/09/03 01:10:18;;;;;;;4.8;4.3;;;;;;;;;;;;;
2022/09/03 01:12:43;;;;;;;6.1;4.3;;;;;;;;;;;;;
2022/09/03 01:15:08;;;;;;;4.4;4;;;;;;;;;;;;;
2022/09/03 01:17:33;;;;;;;5.2;4;;;;;;;;;;;;;
2022/09/03 01:19:58;;;;;;;4;3.6;;;;;;;;;;;;;
2022/09/03 01:22:24;;;;;;;3.9;3.6;;;;;;;;;;;;;
2022/09/03 01:24:49;;;;;;;4.2;3.8;;;;;;;;;;;;;
2022/09/03 01:27:15;;;;;;;4.8;3.7;;;;;;;;;;;;;
2022/09/03 01:29:39;;;;;;;4.1;3.8;;;;;;;;;;;;;
2022/09/03 01:32:06;;;;;;;5.2;4.2;;;;;;;;;;;;;
2022/09/03 01:34:31;;;;;;;4.4;4;;;;;;;;;;;;;
2022/09/03 01:36:56;;;;;;;4.6;3.7;;;;;;;;;;;;;
2022/09/03 01:39:23;;;;;;;4.9;4.4;;;;;;;;;;;;;
2022/09/03 01:44:11;;;;;;;4.4;3.9;;;;;;;;;;;;;
2022/09/03 01:46:36;;;;;;;5;3.6;;;;;;;;;;;;;
2022/09/03 01:49:02;;;;;;;3.9;3.6;;;;;;;;;;;;;
2022/09/03 01:51:27;;;;;;;4.2;3.8;;;;;;;;;;;;;
2022/09/03 01:53:52;;;;;;;5.3;3.8;;;;;;;;;;;;;
2022/09/03 01:56:17;;;;;;;4.5;3.7;;;;;;;;;;;;;
2022/09/03 01:58:44;;;;;;;4.6;3.9;;;;;;;;;;;;;
2022/09/03 02:01:08;;;;;;;4.4;4;;;;;;;;;;;;;
2022/09/03 02:03:33;;;;;;;4.8;4.3;;;;;;;;;;;;;
2022/09/03 02:05:59;;;;;;;3.8;3.5;;;;;;;;;;;;;
2022/09/03 02:08:24;;;;;;;3.6;3.3;;;;;;;;;;;;;
2022/09/03 02:10:51;;;;;;;4;3.7;;;;;;;;;;;;;
2022/09/03 02:13:16;;;;;;;4;3.6;;;;;;;;;;;;;
2022/09/03 02:15:44;;;;;;;3.9;3.5;;;;;;;;;;;;;
2022/09/03 02:18:07;;;;;;;4.5;4.1;;;;;;;;;;;;;
2022/09/03 02:20:32;;;;;;;3.8;3.5;;;;;;;;;;;;;
2022/09/03 02:22:58;;;;;;;4.3;3.5;;;;;;;;;;;;;
2022/09/03 02:25:23;;;;;;;3.9;3.4;;;;;;;;;;;;;
2022/09/03 02:27:49;;;;;;;3.9;3.6;;;;;;;;;;;;;
2022/09/03 02:30:14;;;;;;;3.7;3.4;;;;;;;;;;;;;
2022/09/03 02:32:40;;;;;;;3.6;3.3;;;;;;;;;;;;;
2022/09/03 02:35:05;;;;;;;3.4;3.1;;;;;;;;;;;;;
2022/09/03 02:37:32;;;;;;;4;3.6;;;;;;;;;;;;;
2022/09/03 02:39:57;;;;;;;4.4;3.7;;;;;;;;;;;;;
2022/09/03 02:42:23;;;;;;;4.3;3.4;;;;;;;;;;;;;
2022/09/03 02:44:48;;;;;;;3.9;3.6;;;;;;;;;;;;;
2022/09/03 02:47:14;;;;;;;4.5;3.7;;;;;;;;;;;;;
2022/09/03 02:49:39;;;;;;;4.1;3.7;;;;;;;;;;;;;
2022/09/03 02:52:08;;;;;;;4.4;3.7;;;;;;;;;;;;;
2022/09/03 02:54:35;;;;;;;3.8;3.5;;;;;;;;;;;;;
2022/09/03 02:56:58;;;;;;;4.6;3.7;;;;;;;;;;;;;
2022/09/03 02:59:27;;;;;;;3.8;3.5;;;;;;;;;;;;;
2022/09/03 03:01:50;;;;;;;4.1;3.4;;;;;;;;;;;;;
2022/09/03 03:04:14;;;;;;;3.3;3;;;;;;;;;;;;;
2022/09/03 03:06:39;;;;;;;3.3;3;;;;;;;;;;;;;
2022/09/03 03:09:05;;;;;;;4.5;3.1;;;;;;;;;;;;;
2022/09/03 03:11:30;;;;;;;4;3.2;;;;;;;;;;;;;
2022/09/03 03:13:56;;;;;;;3.5;3.2;;;;;;;;;;;;;
2022/09/03 03:16:21;;;;;;;4;3.1;;;;;;;;;;;;;
2022/09/03 03:18:48;;;;;;;4.7;3.2;;;;;;;;;;;;;
2022/09/03 03:21:13;;;;;;;5.5;3.5;;;;;;;;;;;;;
2022/09/03 03:23:39;;;;;;;3.7;3.4;;;;;;;;;;;;;
2022/09/03 03:26:04;;;;;;;2.9;2.7;;;;;;;;;;;;;
2022/09/03 03:28:32;;;;;;;3.6;3.3;;;;;;;;;;;;;
2022/09/03 03:30:55;;;;;;;3.1;2.8;;;;;;;;;;;;;
2022/09/03 03:33:21;;;;;;;3.2;3;;;;;;;;;;;;;
2022/09/03 03:35:46;;;;;;;3.1;2.8;;;;;;;;;;;;;
2022/09/03 03:38:12;;;;;;;3.4;3.1;;;;;;;;;;;;;
2022/09/03 03:40:37;;;;;;;3.9;2.8;;;;;;;;;;;;;
2022/09/03 03:43:03;;;;;;;2.8;2.6;;;;;;;;;;;;;
2022/09/03 03:45:29;;;;;;;4.3;3.1;;;;;;;;;;;;;
2022/09/03 03:47:55;;;;;;;3.2;2.9;;;;;;;;;;;;;
2022/09/03 03:50:20;;;;;;;3.1;2.8;;;;;;;;;;;;;
2022/09/03 03:52:46;;;;;;;3.8;3.3;;;;;;;;;;;;;
2022/09/03 03:55:10;;;;;;;3.8;3.2;;;;;;;;;;;;;
2022/09/03 03:57:37;;;;;;;3.6;3;;;;;;;;;;;;;
2022/09/03 04:00:02;;;;;;;4.4;3.2;;;;;;;;;;;;;
2022/09/03 04:02:35;;;;;;;3.9;3.2;;;;;;;15.62;91.22656;935.2472;;;;
2022/09/03 04:05:04;;;;;;;3.3;3;;;;;;;15.52;91.48242;935.2865;;;;
2022/09/03 04:07:29;;;;;;;3.1;2.9;;;;;;;15.5;91.52344;935.238;;;;
2022/09/03 04:12:38;;;;;;;3.3;3;;;;;;;15.53;91.19434;935.2759;;;;
2022/09/03 04:15:05;;;;;;;3.8;3.2;;;;;;;15.5;91.24609;935.2692;;;;
2022/09/03 04:17:34;;;;;;;3;2.7;;;;;;;15.53;91.04395;935.366;;;;
2022/09/03 04:20:03;;;;;;;4.3;3.1;;;;;;;15.55;90.45898;935.3183;;;;
2022/09/03 04:22:28;;;;;;;2.9;2.7;;;;;;;15.52;90.29297;935.305;;;;
2022/09/03 04:24:56;;;;;;;3.2;3;;;;;;;15.34;91.27148;935.267;;;;
2022/09/03 04:27:26;;;;;;;3.8;2.9;;;;;;;15.17;92.38867;935.2644;;;;
2022/09/03 04:29:55;;;;;;;3.3;3;;;;;;;15.16;92.2959;935.3269;;;;
2022/09/03 04:34:47;;;;;;;2.9;2.7;;;;;;;15.29;91.41113;935.3223;;;;
2022/09/03 04:37:18;;;;;;;4.3;3.3;;;;;;;15.05;92.80176;935.2875;;;;
2022/09/03 04:39:41;;;;;;;2.9;2.7;;;;;;;15.06;92.67871;935.2697;;;;
2022/09/03 04:42:07;;;;;;;5;3.2;;;;;;;14.99;93.5166;935.2751;;;;
2022/09/03 04:44:37;;;;;;;3.4;3.1;;;;;;;15.12;92.58594;935.3066;;;;
2022/09/03 04:47:01;;;;;;;4.3;3;;;;;;;15.22;91.86914;935.284;;;;
2022/09/03 04:49:30;;;;;;;3.6;2.8;;;;;;;15.32;91.6123;935.3405;;;;
2022/09/03 04:51:55;;;;;;;4;3;;;;;;;15.34;91.23535;935.3361;;;;
2022/09/03 04:54:20;;;;;;;4.4;2.8;;;;;;;15.46;90.84375;935.391;;;;
2022/09/03 04:56:48;;;;;;;3.2;2.9;;;;;;;15.54;90.14453;935.454;;;;
2022/09/03 04:59:14;;;;;;;3.8;3;;;;;;;15.53;89.69238;935.5569;;;;
2022/09/03 05:01:41;;;;;;;3.2;2.4;;;;;;;15.56;88.79883;935.4617;;;;
2022/09/03 05:04:06;;;;;;;2.9;2.4;;;;;;;15.5;88.9248;935.4747;;;;
2022/09/03 05:06:31;;;;;;;4;2.4;;;;;;;15.57;88.22363;935.4455;;;;
2022/09/03 05:09:01;;;;;;;3.2;2.2;;;;;;;15.53;87.84668;935.4645;;;;
2022/09/03 05:11:26;;;;;;;2.2;2;;;;;;;15.55;87.61719;935.5045;;;;
2022/09/03 05:13:52;;;;;;;2.6;2.3;;;;;;;15.59;87.47656;935.6181;;;;
2022/09/03 05:16:17;;;;;;;2.8;2.1;;;;;;;15.61;87.36426;935.6708;;;;
2022/09/03 05:18:46;;;;;;;1.9;1.8;;;;;;;15.6;87.30469;935.6581;;;;
2022/09/03 05:21:11;;;;;;;2.3;2.1;;;;;;;15.71;87.0957;935.6545;;;;
2022/09/03 05:23:39;;;;;;;2.8;2.2;;;;;;;15.74;86.39551;935.7633;;;;
2022/09/03 05:26:07;;;;;;;2.6;2.4;;;;;;;15.83;85.58203;935.824;;;;
2022/09/03 05:28:39;;;;;;;2.4;2.2;;;;;;;15.96;85.81641;935.8317;;;;
2022/09/03 05:31:05;;;;;;;3.3;2.3;;;;;;;16.08;85.69043;935.9072;;;;
2022/09/03 05:33:57;;;;;;;2.6;2.4;;;;;;;16.25;84.94727;935.9217;;;;
2022/09/03 05:36:11;;;;;;;2.7;2.2;;;;;;;16.34;83.7959;935.9813;;;;
2022/09/03 05:38:36;;;;;;;3.7;2.3;;;;;;;16.26;84.71777;936.0308;;;;
2022/09/03 05:41:01;;;;;;;3.7;2.4;;;;;;;16.52;84.55957;936.0228;;;;
2022/09/03 05:43:35;;;;;;;4;2.4;;;;;;;17.28;82.94336;935.9926;;;;
2022/09/03 05:46:04;;;;;;;3.3;2;;;;;;;18.36;75.73047;935.9915;;;;
2022/09/03 05:48:31;;;;;;;2.3;2.1;;;;;;;18.86;73.04785;936.0422;;;;
2022/09/03 05:50:59;;;;;;;3.5;2.1;;;;;;;19;72.53516;936.0353;;;;
2022/09/03 05:53:28;;;;;;;3.1;2.1;;;;;;;18.86;73.69922;936.0623;;;;
2022/09/03 05:55:53;;;;;;;1.9;1.8;;;;;;;18.36;76.96387;936.072;;;;
2022/09/03 05:58:18;;;;;;;3;1.7;;;;;;;18.33;77.15723;936.0606;;;;
2022/09/03 06:00:44;;;;;;;2.5;1.8;;;;;;;18.47;76.24902;936.0996;;;;
2022/09/03 06:03:14;;;;;;;3;1.8;;;;;;;18.49;75.74219;936.1231;;;;
2022/09/03 06:05:46;;;;;;;2.6;2.1;;;;;;;18.72;74.94336;936.0682;;;;
2022/09/03 07:19:17;;;;;;;2;1.9;;;;;;;20.89;63.74023;936.3758;;;;
2022/09/03 07:21:44;;;;;;;2;1.5;;;;;;;21.08;62.85449;936.4233;;;;
2022/09/03 07:24:08;;;;;;;1.6;1.5;;;;;;;21.62;62.54395;936.3308;;;;
2022/09/03 07:26:39;;;;;;;1.6;1.5;;;;;;;22.41;59.80469;936.3273;;;;
2022/09/03 07:29:06;;;;;;;2.4;1.8;;;;;;;22.99;56.83008;936.3463;;;;
2022/09/03 07:31:30;;;;;;;1.9;1.4;;;;;;;23.48;56.65723;936.3223;;;;
2022/09/03 07:33:58;;;;;;;1.5;1.4;;;;;;;24.48;52.6582;936.249;;;;
2022/09/03 07:36:23;;;;;;;2.6;1.3;;;;;;;26.01;49.10352;936.2734;;;;
2022/09/03 07:38:48;;;;;;;1.3;1.2;;;;;;;27.31;46.08887;936.2755;;;;
2022/09/03 07:41:18;;;;;;;1.2;1.1;;;;;;;28.01;44.2959;936.3072;;;;
2022/09/03 07:43:49;;;;;;;1;1;;;;;;;29.4;42.05078;936.2662;;;;
2022/09/03 07:46:21;;;;;;;1.2;1.1;;;;;;;29.7;40.57617;936.2794;;;;
2022/09/03 07:48:42;;;;;;;1.3;1.2;;;;;;;30.77;37.36133;936.3331;;;;
2022/09/03 07:51:08;;;;;;;1.5;1.2;;;;;;;30.73;37.14355;936.2299;;;;
2022/09/03 07:53:35;;;;;;;1.8;1.3;;;;;;;30.73;37.93164;936.3144;;;;
2022/09/03 07:56:00;;;;;;;1.7;1.1;;;;;;;29.19;38.49414;936.293;;;;
2022/09/03 07:58:27;;;;;;;1;1;;;;;;;27.42;41.94922;936.2742;;;;
2022/09/03 08:00:52;;;;;;;1.2;1.1;;;;;;;28.56;40.75977;936.2766;;;;
2022/09/03 08:03:17;;;;;;;1.7;1.2;;;;;;;29.56;37.18945;936.3071;;;;
2022/09/03 08:05:46;;;;;;;1.4;1.3;;;;;;;30.2;36.99219;936.2635;;;;
2022/09/03 08:08:13;;;;;;;1.5;1.2;;;;;;;30.88;35.53027;936.2832;;;;
2022/09/03 08:10:41;;;;;;;1.1;1;;;;;;;30.73;36.1748;936.2059;;;;
2022/09/03 08:13:06;;;;;;;2.2;1.1;;;;;;;30.83;35.7168;936.207;;;;
2022/09/03 08:18:36;;;;;;;1.9;1.2;;;;;;;31.32;34.95313;936.204;;;;
2022/09/03 08:20:54;;;;;;;1.1;1;;;;;;;32.09;33.2627;936.1808;;;;
2022/09/03 08:23:18;;;;;;;1.3;1.2;;;;;;;31.38;34.46777;936.1995;;;;
2022/09/03 08:25:44;;;;;;;1.2;1.1;;;;;;;31.16;34.4873;936.1899;;;;
2022/09/03 08:28:11;;;;;;;1.2;1.1;;;;;;;30.2;37.54102;936.1984;;;;
2022/09/03 08:30:36;;;;;;;1.1;1;;;;;;;30.49;36.33496;936.1909;;;;
2022/09/03 08:33:05;;;;;;;1.5;1.2;;;;;;;30.85;37.81055;936.0996;;;;
2022/09/03 08:35:33;;;;;;;1.1;1.1;;;;;;;29.98;37.97656;936.1071;;;;
2022/09/03 08:37:54;;;;;;;1.8;1.4;;;;;;;29.19;40.30469;936.088;;;;
2022/09/03 08:40:25;;;;;;;2.1;1.9;;;;;;;27.66;44.19141;936.0605;;;;
2022/09/03 08:42:53;;;;;;;1.6;1.5;;;;;;;27.34;46.60352;936.1049;;;;
2022/09/03 08:45:21;;;;;;;1.3;1.2;;;;;;;28.67;41.375;936.1245;;;;
2022/09/03 08:47:46;;;;;;;1.4;1.3;;;;;;;28.62;41.14453;936.1417;;;;
2022/09/03 08:50:20;;;;;;;1.9;1.3;;;;;;;30.36;40.01367;936.1415;;;;
2022/09/03 08:52:53;;;;;;;1.5;1.4;;;;;;;32.27;35.3623;936.1078;;;;
2022/09/03 08:55:19;;;;;;;1.5;1.4;;;;;;;32.31;35.4375;936.0676;;;;
2022/09/03 08:57:47;;;;;;;1.4;1.3;;;;;;;31.92;34.60449;935.9992;;;;
2022/09/03 09:00:12;;;;;;;2.1;1.4;;;;;;;32.6;34.4043;936.0043;;;;
2022/09/03 09:02:37;;;;;;;2.3;1.2;;;;;;;32.48;34.7666;936.019;;;;
2022/09/03 09:05:02;;;;;;;1.5;1.4;;;;;;;32.55;33.72754;936.012;;;;
2022/09/03 09:07:31;;;;;;;1.5;1.4;;;;;;;30.42;37.9541;936.0097;;;;
2022/09/03 09:09:57;;;;;;;1.6;1.5;;;;;;;28.8;41.20898;935.999;;;;
2022/09/03 09:12:23;;;;;;;2.1;1.6;;;;;;;28.4;42.58789;935.9708;;;;
2022/09/03 09:14:48;;;;;;;1.6;1.5;;;;;;;28.08;43.03223;935.9252;;;;
2022/09/03 09:17:14;;;;;;;1.8;1.7;;;;;;;27.06;45.66211;935.9141;;;;
2022/09/03 09:19:48;;;;;;;2;1.8;;;;;;;26.37;47.94629;935.895;;;;
2022/09/03 09:22:19;;;;;;;1.6;1.5;;;;;;;25.94;48.90625;935.9077;;;;
2022/09/03 09:24:47;;;;;;;1.7;1.6;;;;;;;26.1;49.4668;935.9583;;;;
2022/09/03 09:27:13;;;;;;;2.8;1.8;;;;;;;25.63;50.40723;935.9146;;;;
2022/09/03 09:29:42;;;;;;;2;1.9;;;;;;;25.82;50.01563;935.9522;;;;
2022/09/03 09:32:07;;;;;;;1.9;1.8;;;;;;;25.88;49.16992;935.9886;;;;
2022/09/03 09:34:33;;;;;;;1.8;1.7;;;;;;;25.93;48.40723;935.9458;;;;
2022/09/03 09:36:57;;;;;;;1.4;1.3;;;;;;;26.02;47.79004;935.9083;;;;
2022/09/03 09:39:22;;;;;;;1.8;1.7;;;;;;;25.79;48.3457;935.8869;;;;
2022/09/03 09:41:56;;;;;;;2.1;1.8;;;;;;;25.48;51.14648;935.8961;;;;
2022/09/03 09:44:22;;;;;;;2.3;1.8;;;;;;;25.31;51.5166;935.8696;;;;
2022/09/03 09:46:50;;;;;;;2;1.8;;;;;;;25.23;51.30664;935.9022;;;;
2022/09/03 09:49:15;;;;;;;2.3;2.1;;;;;;;24.98;52.74121;935.8836;;;;
2022/09/03 09:51:40;;;;;;;2.3;1.8;;;;;;;24.28;55.79199;935.7971;;;;
2022/09/03 09:54:07;;;;;;;1.8;1.7;;;;;;;24.72;53.87793;935.873;;;;
2022/09/03 09:56:33;;;;;;;2.7;1.8;;;;;;;24.74;53.03223;935.9108;;;;
2022/09/03 09:59:02;;;;;;;2.3;2.1;;;;;;;24.68;53.64941;935.8802;;;;
2022/09/03 10:01:29;;;;;;;2.5;1.9;;;;;;;24.98;53.27148;935.8929;;;;
2022/09/03 10:03:54;;;;;;;2.4;2;;;;;;;24.95;53.54102;935.9675;;;;
2022/09/03 10:12:22;;;;;;;2.1;1.9;;;;;;;25.06;52.77344;935.9139;;;;
2022/09/03 10:14:47;;;;;;;3.2;2;;;;;;;24.88;53.39063;935.9741;;;;
2022/09/03 10:17:12;;;;;;;2.1;1.9;;;;;;;25.01;52.69727;936.0333;;;;
2022/09/03 10:19:37;;;;;;;2.1;2;;;;;;;25.35;51.92188;935.9411;;;;
2022/09/03 10:22:07;;;;;;;2.2;2;;;;;;;25.6;52.09473;935.9328;;;;
2022/09/03 10:24:32;;;;;;;1.9;1.8;;;;;;;25.78;50.81543;935.8953;;;;
2022/09/03 10:26:57;;;;;;;1.9;1.7;;;;;;;26.03;49.01074;935.9331;;;;
2022/09/03 10:29:24;;;;;;;1.7;1.6;;;;;;;26.54;47.57422;935.8798;;;;
2022/09/03 10:31:47;;;;;;;2;1.7;;;;;;;26.91;47.57715;935.8605;;;;
2022/09/03 10:34:43;;;;;;;1.7;1.6;;;;;;;27.4;47.46191;935.8579;;;;
2022/09/03 10:37:11;;;;;;;2;1.9;;;;;;;27.04;48.04199;935.9247;;;;
2022/09/03 10:39:40;;;;;;;2.2;1.7;;;;;;;26.67;50.00391;935.7971;;;;
2022/09/03 10:42:05;;;;;;;1.8;1.7;;;;;;;26.79;51.65137;935.8842;;;;
2022/09/03 10:44:34;;;;;;;3.2;1.7;;;;;;;26.91;47.98047;935.8709;;;;
2022/09/03 10:46:58;;;;;;;1.7;1.6;;;;;;;27.9;45.15332;935.8095;;;;
2022/09/03 10:49:26;;;;;;;2.5;1.5;;;;;;;27.89;46.83789;935.7709;;;;
2022/09/03 10:51:56;;;;;;;1.7;1.6;;;;;;;27.84;46.03809;935.7878;;;;
2022/09/03 10:54:21;;;;;;;3.5;1.8;;;;;;;28.56;44.18359;935.8103;;;;
2022/09/03 10:56:48;;;;;;;1.7;1.6;;;;;;;28.13;47.74219;935.7654;;;;
2022/09/03 10:59:12;;;;;;;1.5;1.4;;;;;;;27.17;48.56543;935.7135;;;;
2022/09/03 11:01:44;;;;;;;1.7;1.6;;;;;;;26.89;50.8457;935.7668;;;;
2022/09/03 11:04:09;;;;;;;1.6;1.5;;;;;;;28.48;46.78027;935.7287;;;;
2022/09/03 11:06:34;;;;;;;2.1;1.4;;;;;;;29.24;41.4043;935.7233;;;;
2022/09/03 11:09:00;;;;;;;2.1;1.4;;;;;;;27.91;45.28418;935.6216;;;;
2022/09/03 11:11:28;;;;;;;1.7;1.6;;;;;;;27.41;47.45313;935.6008;;;;
2022/09/03 11:13:54;;;;;;;1.9;1.6;;;;;;;27.92;44.47852;935.5856;;;;
2022/09/03 11:16:24;;;;;;;1.6;1.5;;;;;;;28.1;44.9707;935.5161;;;;
2022/09/03 11:18:49;;;;;;;2.9;1.6;;;;;;;28.74;41.54883;935.4911;;;;
2022/09/03 11:21:15;;;;;;;1.8;1.4;;;;;;;28.95;44.28125;935.4498;;;;
2022/09/03 11:23:40;;;;;;;1.5;1.4;;;;;;;28.42;43.00586;935.437;;;;
2022/09/03 11:26:05;;;;;;;1.5;1.4;;;;;;;29.06;41.62598;935.4233;;;;
2022/09/03 11:29:10;;;;;;;1.5;1.4;;;;;;;29.82;39.87012;935.4598;;;;
2022/09/03 11:31:35;;;;;;;1.6;1.4;;;;;;;30.07;38.40137;935.3617;;;;
2022/09/03 11:34:02;;;;;;;1.5;1.4;;;;;;;29.96;38.20117;935.3033;;;;
2022/09/03 11:36:28;;;;;;;1.9;1.5;;;;;;;29.48;39.45996;935.3095;;;;
2022/09/03 11:38:53;;;;;;;1.6;1.4;;;;;;;29.44;39.11035;935.2726;;;;
2022/09/03 11:41:23;;;;;;;1.6;1.5;;;;;;;29.6;41.25879;935.2177;;;;
2022/09/03 11:43:55;;;;;;;1.5;1.4;;;;;;;29.99;39.64746;935.222;;;;
2022/09/03 11:46:20;;;;;;;2;1.4;;;;;;;30.83;38.27539;935.2061;;;;
2022/09/03 11:48:49;;;;;;;1.5;1.4;;;;;;;31.01;37.02246;935.1096;;;;
2022/09/03 11:51:17;;;;;;;1.4;1.3;;;;;;;31.22;38.3916;935.1193;;;;
2022/09/03 11:53:42;;;;;;;1.4;1.3;;;;;;;30.62;39.2002;935.1076;;;;
2022/09/03 11:59:48;;;;;;;1.6;1.5;;;;;;;31.38;35.56836;935.152;;;;
2022/09/03 12:02:13;;;;;;;1.5;1.4;;;;;;;31.3;38.03906;935.0875;;;;
2022/09/03 12:04:43;;;;;;;2.6;1.4;;;;;;;31.51;38.08105;935.0865;;;;
2022/09/03 12:07:08;;;;;;;1.5;1.4;;;;;;;32.21;34.32715;935.0219;;;;
2022/09/03 12:09:35;;;;;;;1.9;1.6;;;;;;;32.43;35.05078;934.9814;;;;
2022/09/03 12:12:05;;;;;;;1.4;1.3;;;;;;;32.65;34.86426;935.0027;;;;
2022/09/03 12:14:33;;;;;;;2;1.6;;;;;;;33.24;33.62305;934.9928;;;;
2022/09/03 12:17:01;;;;;;;2.1;1.4;;;;;;;33.82;33.1123;935.0045;;;;
2022/09/03 12:19:26;;;;;;;1.2;1.2;;;;;;;34.22;31.19043;934.9359;;;;
2022/09/03 12:21:52;;;;;;;1.3;1.2;;;;;;;34.91;30.27344;934.875;;;;
2022/09/03 12:24:22;;;;;;;1.4;1.3;;;;;;;32.58;34.64258;934.9033;;;;
2022/09/03 12:26:46;;;;;;;1.5;1.4;;;;;;;33.25;34.18945;934.8867;;;;
2022/09/03 12:29:14;;;;;;;1.5;1.4;;;;;;;32.93;36.00195;934.8716;;;;
2022/09/03 12:35:20;;;;;;;1.6;1.5;;;;;;;33.04;33.83691;934.7544;;;;
2022/09/03 12:37:51;;;;;;;1.5;1.4;;;;;;;33.72;36.10059;934.82;;;;
2022/09/03 12:48:41;;;;;;;1.6;1.5;;;;;;;33.94;34.69824;934.6314;;;;
2022/09/03 12:51:09;;;;;;;1.3;1.3;;;;;;;33.18;35.61328;934.5209;;;;
2022/09/03 12:53:34;;;;;;;1.8;1.5;;;;;;;33.38;35.31641;934.4441;;;;
2022/09/03 12:55:59;;;;;;;1.6;1.5;;;;;;;31.78;39.12207;934.4306;;;;
2022/09/03 12:58:25;;;;;;;1.4;1.3;;;;;;;31.4;38.3584;934.3844;;;;
2022/09/03 13:00:50;;;;;;;1.8;1.7;;;;;;;31.49;37.62402;934.3864;;;;
2022/09/03 13:03:15;;;;;;;1.9;1.7;;;;;;;32.11;36.77637;934.3858;;;;
2022/09/03 13:05:41;;;;;;;1.6;1.5;;;;;;;32.61;35.08887;934.4609;;;;
2022/09/03 13:08:05;;;;;;;1.6;1.3;;;;;;;31.48;36.88086;934.3734;;;;
2022/09/03 13:10:36;;;;;;;2.2;1.3;;;;;;;30.33;39.02051;934.4265;;;;
2022/09/03 13:13:00;;;;;;;1.6;1.5;;;;;;;29.64;39.46191;934.5195;;;;
2022/09/03 13:15:34;;;;;;;1.6;1.5;;;;;;;29.03;41.44434;934.5044;;;;
2022/09/03 13:17:59;;;;;;;1.6;1.5;;;;;;;28.58;42.73535;934.5314;;;;
2022/09/03 13:20:24;;;;;;;2;1.7;;;;;;;28.06;43.74316;934.5425;;;;
2022/09/03 13:22:50;;;;;;;1.4;1.3;;;;;;;27.46;44.89551;934.6633;;;;
2022/09/03 13:25:16;;;;;;;1.5;1.4;;;;;;;27.04;43.80957;934.6431;;;;
2022/09/03 13:27:43;;;;;;;1.6;1.4;;;;;;;26.84;43.94336;934.6478;;;;
2022/09/03 13:30:12;;;;;;;1.6;1.5;;;;;;;26.19;45.31348;934.616;;;;
2022/09/03 13:32:40;;;;;;;1.5;1.3;;;;;;;25.99;45.16211;934.7064;;;;
2022/09/03 13:35:05;;;;;;;1.6;1.5;;;;;;;25.45;47.67188;934.6516;;;;
2022/09/03 13:38:00;;;;;;;1.5;1.4;;;;;;;25.58;47.88477;934.6424;;;;
2022/09/03 13:40:29;;;;;;;1.6;1.4;;;;;;;25.44;47.63477;934.7158;;;;
2022/09/03 13:43:01;;;;;;;1.4;1.3;;;;;;;25.27;47.35547;934.738;;;;
2022/09/03 13:45:24;;;;;;;2.1;1.4;;;;;;;25.15;47.6748;934.7766;;;;
2022/09/03 13:50:25;;;;;;;1.4;1.3;;;;;;;24.9;50.97461;934.8412;;;;
2022/09/03 13:52:44;;;;;;;2.7;1.5;;;;;;;24.07;57.0957;934.894;;;;
2022/09/03 13:55:15;;;;;;;5;2.2;;;;;;;23.69;60.35254;934.9799;;;;
2022/09/03 13:57:40;;;;;;;5.5;2.1;;;;;;;23.09;63.12793;934.9691;;;;
2022/09/03 14:03:56;;;;;;;5.4;1.9;;;;;;;22.19;67.80762;935.3056;;;;
2022/09/03 14:06:21;;;;;;;1.9;1.1;;;;;;;21.55;68.91602;935.4539;;;;
2022/09/03 14:08:52;;;;;;;4;1;;;;;;;20.85;71.4834;935.6456;;;;
2022/09/03 14:11:11;;;;;;;5.3;1.6;;;;;;;20.75;76.15527;935.9131;;;;
2022/09/03 14:13:40;;;;;;;2.3;1.3;;;;;;;20.24;77.8877;936.2676;;;;
2022/09/03 14:16:06;;;;;;;3;1.3;;;;;;;20.39;77.09766;936.5396;;;;
2022/09/03 14:18:35;;;;;;;2.8;1.4;;;;;;;20.37;76.5791;936.8655;;;;
2022/09/03 14:25:19;;;;;;;0.9;0.7;;;;;;;18.74;79.80957;937.2196;;;;
2022/09/03 14:27:48;;;;;;;2;0.6;;;;;;;18.73;80.53125;937.3335;;;;
2022/09/03 14:30:16;;;;;;;1.2;0.7;;;;;;;18.44;80.38379;937.3298;;;;
2022/09/03 14:32:44;;;;;;;2.2;1.1;;;;;;;18.54;82.15723;937.2614;;;;
2022/09/03 14:35:09;;;;;;;2.7;1;;;;;;;18.38;83.80273;937.272;;;;
2022/09/03 14:37:34;;;;;;;1.6;0.9;;;;;;;18.25;86.48633;937.2935;;;;
2022/09/03 14:39:59;;;;;;;2.9;1.2;;;;;;;18.22;86.70215;937.3987;;;;
2022/09/03 14:42:24;;;;;;;2;1;;;;;;;18.26;86.54688;937.4455;;;;
2022/09/03 14:44:57;;;;;;;1.1;0.9;;;;;;;18.34;85.65527;937.4711;;;;
2022/09/03 14:47:22;;;;;;;2.9;1.1;;;;;;;18.45;85.29297;937.5675;;;;
2022/09/03 14:49:47;;;;;;;2.3;1;;;;;;;18.31;87.26465;937.5299;;;;
2022/09/03 14:52:15;;;;;;;1.7;1;;;;;;;18.21;86.25684;937.5552;;;;
2022/09/03 14:54:40;;;;;;;1.1;0.7;;;;;;;18.37;85.46387;937.5971;;;;
2022/09/03 14:57:05;;;;;;;1.2;0.6;;;;;;;18.53;85.85547;937.5842;;;;
2022/09/03 14:59:31;;;;;;;1.5;0.7;;;;;;;18.76;85.87598;937.6166;;;;
2022/09/03 15:02:00;;;;;;;1;0.7;;;;;;;18.97;84.75391;937.5853;;;;
2022/09/03 15:04:27;;;;;;;1;0.9;;;;;;;19.19;83.93457;937.6232;;;;
2022/09/03 15:06:54;;;;;;;2;0.7;;;;;;;19.25;81.3584;937.5953;;;;
2022/09/03 15:09:19;;;;;;;0.5;0.4;;;;;;;19.32;81.80273;937.5614;;;;
2022/09/03 15:11:44;;;;;;;1.9;0.9;;;;;;;19.39;82.39941;937.5563;;;;
2022/09/03 15:14:11;;;;;;;1.8;0.9;;;;;;;19.54;81.69336;937.5933;;;;
2022/09/03 15:16:36;;;;;;;1.1;0.6;;;;;;;19.63;81.51074;937.5444;;;;
2022/09/03 15:19:03;;;;;;;0.9;0.7;;;;;;;19.6;80.0127;937.5474;;;;
2022/09/03 15:21:27;;;;;;;0.8;0.7;;;;;;;19.54;79.91016;937.5367;;;;
2022/09/03 15:23:53;;;;;;;0.6;0.6;;;;;;;19.53;79.21875;937.5313;;;;
2022/09/03 15:26:17;;;;;;;1.8;0.9;;;;;;;19.06;81.30176;937.473;;;;
2022/09/03 15:28:42;;;;;;;1.4;0.8;;;;;;;18.9;82.45801;937.4847;;;;
2022/09/03 15:31:08;;;;;;;2.7;1.1;;;;;;;18.89;82.58398;937.4655;;;;
2022/09/03 15:33:34;;;;;;;1.2;0.9;;;;;;;18.83;82.77148;937.413;;;;
2022/09/03 15:35:58;;;;;;;3;2;;;;;;;18.73;82.91602;937.456;;;;
2022/09/03 15:38:24;;;;;;;1.9;1.5;;;;;;;18.74;83.47461;937.4672;;;;
2022/09/03 15:40:50;;;;;;;6.8;3.6;;;;;;;18.87;84.16309;937.4361;;;;
2022/09/03 15:43:15;;;;;;;1.6;1.5;;;;;;;18.87;82.88281;937.4256;;;;
2022/09/03 15:45:40;;;;;;;1.3;0.9;;;;;;;18.96;82.7373;937.384;;;;
2022/09/03 15:48:05;;;;;;;1.3;1;;;;;;;18.86;82.18359;937.2961;;;;
2022/09/03 15:50:31;;;;;;;2.4;1.2;;;;;;;18.71;81.71289;937.2178;;;;
2022/09/03 15:52:57;;;;;;;2.9;2.3;;;;;;;18.7;82.66602;937.1446;;;;
2022/09/03 15:55:22;;;;;;;3.6;2.4;;;;;;;18.73;81.86914;937.2173;;;;
2022/09/03 15:57:47;;;;;;;2.9;1.8;;;;;;;18.74;83.96484;937.192;;;;
2022/09/03 16:00:15;;;;;;;3.1;1.8;;;;;;;19.19;81.86133;937.2575;;;;
2022/09/03 16:02:41;;;;;;;2.1;1.3;;;;;;;19.4;82.93652;937.2126;;;;
2022/09/03 16:05:06;;;;;;;2.3;1.3;;;;;;;19.55;80.45801;937.2887;;;;
2022/09/03 16:07:33;;;;;;;0.8;0.7;;;;;;;19.39;80.78125;937.3115;;;;
2022/09/03 16:09:57;;;;;;;0.7;0.7;;;;;;;19.57;81.27832;937.3074;;;;
2022/09/03 16:12:21;;;;;;;0.7;0.7;;;;;;;19.59;80.6875;937.2698;;;;
2022/09/03 16:14:46;;;;;;;0.9;0.7;;;;;;;19.42;79.89844;937.2794;;;;
2022/09/03 16:17:11;;;;;;;1.2;1;;;;;;;19.25;81.12695;937.2012;;;;
2022/09/03 16:19:36;;;;;;;1.2;1;;;;;;;19.57;83.12012;937.2033;;;;
2022/09/03 16:22:01;;;;;;;1.2;0.8;;;;;;;19.65;79.98828;937.0728;;;;
2022/09/03 16:24:27;;;;;;;1;0.9;;;;;;;19.43;81.94141;937.0524;;;;
2022/09/03 16:26:52;;;;;;;1.4;1.3;;;;;;;19.36;81.56641;937.0273;;;;
2022/09/03 16:29:17;;;;;;;0.8;0.8;;;;;;;19.5;81.60352;937.0513;;;;
2022/09/03 16:31:44;;;;;;;0.7;0.7;;;;;;;19.12;80.15918;937.0543;;;;
2022/09/03 16:34:09;;;;;;;0.9;0.7;;;;;;;19.01;82.01367;936.9969;;;;
2022/09/03 16:36:34;;;;;;;1.1;0.8;;;;;;;18.9;81.60938;937.0586;;;;
2022/09/03 16:42:01;;;;;;;0.8;0.8;;;;;;;18.88;82.80371;937.0722;;;;
2022/09/03 16:44:33;;;;;;;1.4;1.1;;;;;;;18.91;83.55469;937.0784;;;;
2022/09/03 16:46:58;;;;;;;1.9;1;;;;;;;18.76;85.36426;937.0779;;;;
2022/09/03 16:49:25;;;;;;;1;0.8;;;;;;;18.58;86.80664;937.0139;;;;
2022/09/03 16:51:48;;;;;;;1.2;1.1;;;;;;;18.52;87.62109;937.0247;;;;
2022/09/03 16:54:16;;;;;;;1.8;1;;;;;;;18.45;87.58398;936.9103;;;;
2022/09/03 16:56:41;;;;;;;1.4;1.1;;;;;;;18.35;88.45898;937.0187;;;;
2022/09/03 16:59:06;;;;;;;1.6;1.1;;;;;;;18.19;88.47266;937.0962;;;;
2022/09/03 17:01:31;;;;;;;1.3;1.1;;;;;;;18.43;88.72949;937.0728;;;;
2022/09/03 17:04:01;;;;;;;2;1.1;;;;;;;18.32;86.82617;937.0952;;;;
2022/09/03 17:06:30;;;;;;;1.9;1.2;;;;;;;18.36;86.98242;937.0597;;;;
2022/09/03 17:08:57;;;;;;;1.7;1.3;;;;;;;18.62;86.63867;936.9661;;;;
2022/09/03 17:11:25;;;;;;;1.6;1.2;;;;;;;18.5;86.10645;937.068;;;;
2022/09/03 17:17:04;;;;;;;1.3;1.2;;;;;;;18.47;87.65527;937.072;;;;
2022/09/03 17:19:30;;;;;;;1.4;0.8;;;;;;;18.33;88.15332;937.1005;;;;
2022/09/03 17:21:55;;;;;;;0.7;0.7;;;;;;;18.22;87.8877;937.0892;;;;
2022/09/03 17:24:22;;;;;;;1.6;0.9;;;;;;;18.34;87.68848;937.0594;;;;
2022/09/03 17:26:46;;;;;;;1.4;1.1;;;;;;;18.43;87.19434;937.1527;;;;
2022/09/03 17:29:12;;;;;;;1.1;1;;;;;;;18.2;87.82422;937.1853;;;;
2022/09/03 17:34:23;;;;;;;1.4;0.8;;;;;;;17.96;89.2041;937.1863;;;;
2022/09/03 17:36:50;;;;;;;1.2;0.7;;;;;;;17.74;90.13477;937.199;;;;
2022/09/03 17:39:15;;;;;;;1.5;1;;;;;;;17.77;89.96582;937.1752;;;;
2022/09/03 17:41:41;;;;;;;2.6;1.1;;;;;;;17.8;89.10059;937.1199;;;;